PNH weather

Phnom Penh International Airport
Phnom Penh, Kandaal, Cambodia

Public forecast

Using degrees Celsius for public forecast. Weather courtesy of forecast.io.

METAR (pilot weather report)

Retrieved 2019/04/19 04:30 UTC (8 minutes ago):

VDPP 190430Z 18007KT 110V260 9999 SCT017 36/24 Q1008

TAF (pilot weather forecast)

Forecast is more than 12 hours old.

Retrieved 2019/04/18 00:00 UTC (1 day ago):

TAF VDPP 182300Z 1900/1918 15006KT 9999 SCT017 TEMPO 1906/1911 SCT015 FEW017CB